createdAt,value
2018-09-29T00:00:56.946Z,8.70
2018-09-29T00:03:25.579Z,8.70
2018-09-29T00:05:54.257Z,8.70
2018-09-29T00:08:22.942Z,8.70
2018-09-29T00:10:51.554Z,8.60
2018-09-29T00:13:20.256Z,8.60
2018-09-29T00:15:48.930Z,8.60
2018-09-29T00:18:17.724Z,8.50
2018-09-29T00:20:46.342Z,8.50
2018-09-29T00:23:15.080Z,8.50
2018-09-29T00:25:43.729Z,8.50
2018-09-29T00:28:12.404Z,8.50
2018-09-29T00:30:41.141Z,8.50
2018-09-29T00:33:09.723Z,8.40
2018-09-29T00:35:38.366Z,8.40
2018-09-29T00:38:07.280Z,8.50
2018-09-29T00:40:35.906Z,8.40
2018-09-29T00:43:04.575Z,8.50
2018-09-29T00:45:33.150Z,8.40
2018-09-29T00:48:01.727Z,8.40
2018-09-29T00:50:30.321Z,8.50
2018-09-29T00:52:58.918Z,8.40
2018-09-29T00:55:27.534Z,8.30
2018-09-29T00:57:56.145Z,8.30
2018-09-29T01:00:25.038Z,8.30
2018-09-29T01:02:53.642Z,8.30
2018-09-29T01:05:22.279Z,8.30
2018-09-29T01:07:51.229Z,8.30
2018-09-29T01:10:20.544Z,8.20
2018-09-29T01:12:49.134Z,8.20
2018-09-29T01:15:17.868Z,8.10
2018-09-29T01:17:46.401Z,8.00
2018-09-29T01:20:15.019Z,8.00
2018-09-29T01:22:43.566Z,7.90
2018-09-29T01:25:12.167Z,7.90
2018-09-29T01:27:40.842Z,7.80
2018-09-29T01:30:09.473Z,7.70
2018-09-29T01:32:38.103Z,7.70
2018-09-29T01:35:07.307Z,7.70
2018-09-29T01:37:35.900Z,7.70
2018-09-29T01:40:04.567Z,7.60
2018-09-29T01:42:33.140Z,7.60
2018-09-29T01:45:01.743Z,7.50
2018-09-29T01:47:30.328Z,7.40
2018-09-29T01:49:58.957Z,7.30
2018-09-29T01:52:27.571Z,7.30
2018-09-29T01:54:56.282Z,7.30
2018-09-29T01:57:25.089Z,7.30
2018-09-29T01:59:53.745Z,7.30
2018-09-29T02:02:23.011Z,7.20
2018-09-29T02:04:52.988Z,7.20
2018-09-29T02:07:21.962Z,7.20
2018-09-29T02:09:50.824Z,7.20
2018-09-29T02:12:19.821Z,7.10
2018-09-29T02:14:48.463Z,7.20
2018-09-29T02:17:17.151Z,7.20
2018-09-29T02:19:45.838Z,7.20
2018-09-29T02:22:14.457Z,7.20
2018-09-29T02:24:43.172Z,7.10
2018-09-29T02:27:11.835Z,7.10
2018-09-29T02:29:40.542Z,7.00
2018-09-29T02:32:09.230Z,6.90
2018-09-29T02:34:38.043Z,6.80
2018-09-29T02:37:06.754Z,6.70
2018-09-29T02:39:35.287Z,6.70
2018-09-29T02:42:03.995Z,6.60
2018-09-29T02:44:32.624Z,6.50
2018-09-29T02:47:01.266Z,6.50
2018-09-29T02:49:29.918Z,6.50
2018-09-29T02:51:58.660Z,6.50
2018-09-29T02:54:27.470Z,6.40
2018-09-29T02:56:56.087Z,6.40
2018-09-29T02:59:24.705Z,6.40
2018-09-29T03:01:53.379Z,6.30
2018-09-29T03:04:22.138Z,6.30
2018-09-29T03:06:50.821Z,6.30
2018-09-29T03:09:19.429Z,6.30
2018-09-29T03:11:48.063Z,6.20
2018-09-29T03:14:16.672Z,6.30
2018-09-29T03:16:45.444Z,6.30
2018-09-29T03:19:14.163Z,6.30
2018-09-29T03:21:42.741Z,6.30
2018-09-29T03:24:11.281Z,6.30
2018-09-29T03:26:39.899Z,6.30
2018-09-29T03:29:08.603Z,6.30
2018-09-29T03:31:37.272Z,6.30
2018-09-29T03:34:06.056Z,6.40
2018-09-29T03:36:34.661Z,6.30
2018-09-29T03:39:05.278Z,6.30
2018-09-29T03:41:33.808Z,6.30
2018-09-29T03:44:02.460Z,6.30
2018-09-29T03:46:31.532Z,6.20
2018-09-29T03:49:00.124Z,6.20
2018-09-29T03:51:29.550Z,6.20
2018-09-29T03:53:58.127Z,6.20
2018-09-29T03:56:26.734Z,6.20
2018-09-29T03:58:55.389Z,6.20
2018-09-29T04:01:24.196Z,6.20
2018-09-29T04:03:52.747Z,6.20
2018-09-29T04:06:21.357Z,6.30
2018-09-29T04:08:49.926Z,6.20
2018-09-29T04:11:18.523Z,6.20
2018-09-29T04:13:47.166Z,6.20
2018-09-29T04:16:15.972Z,6.10
2018-09-29T04:18:44.571Z,6.10
2018-09-29T04:21:13.140Z,6.10
2018-09-29T04:23:41.795Z,6.00
2018-09-29T04:26:10.786Z,6.00
2018-09-29T04:28:39.437Z,6.00
2018-09-29T04:31:08.124Z,6.00
2018-09-29T04:33:36.772Z,5.90
2018-09-29T04:36:05.542Z,5.80
2018-09-29T04:38:34.435Z,5.70
2018-09-29T04:41:03.055Z,5.70
2018-09-29T04:43:32.089Z,5.70
2018-09-29T04:46:00.705Z,5.70
2018-09-29T04:48:29.314Z,5.60
2018-09-29T04:50:57.901Z,5.70
2018-09-29T04:53:27.496Z,5.70
2018-09-29T04:55:56.123Z,5.70
2018-09-29T04:58:25.847Z,5.70
2018-09-29T05:00:54.481Z,5.80
2018-09-29T05:03:23.084Z,5.70
2018-09-29T05:05:51.722Z,5.80
2018-09-29T05:08:20.274Z,5.80
2018-09-29T05:10:48.944Z,5.70
2018-09-29T05:13:17.859Z,5.70
2018-09-29T05:15:46.758Z,5.70
2018-09-29T05:18:15.773Z,5.80
2018-09-29T05:20:44.401Z,5.80
2018-09-29T05:23:13.008Z,5.80
2018-09-29T05:25:41.498Z,5.80
2018-09-29T05:28:10.065Z,5.70
2018-09-29T05:30:38.649Z,5.70
2018-09-29T05:33:07.306Z,5.60
2018-09-29T05:35:35.925Z,5.60
2018-09-29T05:38:04.548Z,5.60
2018-09-29T05:40:33.395Z,5.60
2018-09-29T05:43:01.990Z,5.60
2018-09-29T05:45:30.585Z,5.70
2018-09-29T05:47:59.167Z,5.70
2018-09-29T05:50:27.813Z,5.70
2018-09-29T05:52:56.430Z,5.70
2018-09-29T05:55:25.064Z,5.70
2018-09-29T05:57:55.492Z,5.80
2018-09-29T06:00:27.825Z,5.80
2018-09-29T06:02:56.645Z,5.80
2018-09-29T06:05:25.352Z,5.90
2018-09-29T06:07:54.189Z,6.00
2018-09-29T06:10:22.788Z,6.10
2018-09-29T06:12:51.341Z,6.20
2018-09-29T06:15:20.072Z,6.30
2018-09-29T06:17:49.073Z,6.40
2018-09-29T06:20:17.710Z,6.40
2018-09-29T06:22:46.313Z,6.60
2018-09-29T06:25:14.958Z,6.70
2018-09-29T06:27:43.693Z,6.80
2018-09-29T06:30:12.283Z,7.00
2018-09-29T06:32:41.218Z,7.00
2018-09-29T06:35:09.996Z,7.10
2018-09-29T06:37:38.689Z,7.20
2018-09-29T06:40:07.435Z,7.40
2018-09-29T06:42:36.439Z,7.50
2018-09-29T06:45:05.873Z,7.60
2018-09-29T06:47:35.661Z,7.70
2018-09-29T06:50:04.400Z,7.80
2018-09-29T06:52:33.184Z,7.90
2018-09-29T06:55:02.890Z,7.90
2018-09-29T06:57:31.483Z,8.00
2018-09-29T07:00:00.267Z,8.00
2018-09-29T07:02:29.077Z,8.10
2018-09-29T07:04:57.750Z,8.20
2018-09-29T07:07:26.519Z,8.30
2018-09-29T07:09:55.340Z,8.40
2018-09-29T07:12:24.162Z,8.50
2018-09-29T07:14:52.848Z,8.60
2018-09-29T07:17:21.563Z,8.70
2018-09-29T07:19:50.310Z,8.80
2018-09-29T07:22:18.940Z,8.90
2018-09-29T07:24:47.560Z,9.00
2018-09-29T07:27:16.228Z,9.00
2018-09-29T07:29:45.092Z,9.10
2018-09-29T07:32:13.801Z,9.00
2018-09-29T07:34:42.554Z,9.10
2018-09-29T07:37:11.175Z,9.30
2018-09-29T07:39:39.808Z,9.20
2018-09-29T07:42:08.668Z,9.20
2018-09-29T07:44:37.469Z,9.20
2018-09-29T07:47:06.145Z,9.30
2018-09-29T07:49:34.903Z,9.30
2018-09-29T07:52:03.608Z,9.30
2018-09-29T07:54:32.362Z,9.40
2018-09-29T07:57:01.135Z,9.50
2018-09-29T07:59:29.812Z,9.50
2018-09-29T08:01:58.581Z,9.60
2018-09-29T08:04:27.299Z,9.70
2018-09-29T08:06:56.149Z,9.80
2018-09-29T08:09:24.757Z,9.80
2018-09-29T08:11:53.620Z,9.80
2018-09-29T08:14:22.281Z,9.80
2018-09-29T08:16:51.026Z,9.90
2018-09-29T08:19:20.052Z,10.00
2018-09-29T08:21:48.744Z,10.00
2018-09-29T08:24:17.709Z,10.10
2018-09-29T08:26:46.565Z,10.10
2018-09-29T08:29:15.282Z,10.20
2018-09-29T08:31:44.055Z,10.30
2018-09-29T08:34:12.991Z,10.40
2018-09-29T08:36:41.644Z,10.50
2018-09-29T08:39:10.837Z,10.70
2018-09-29T08:41:39.889Z,10.60
2018-09-29T08:44:08.804Z,10.70
2018-09-29T08:46:37.516Z,10.70
2018-09-29T08:49:07.047Z,10.80
2018-09-29T08:51:35.895Z,10.80
2018-09-29T08:54:04.594Z,11.00
2018-09-29T08:56:34.390Z,11.00
2018-09-29T08:59:03.398Z,11.00
2018-09-29T09:01:32.062Z,11.10
2018-09-29T09:04:00.867Z,11.10
2018-09-29T09:06:29.815Z,11.30
2018-09-29T09:08:58.473Z,11.30
2018-09-29T09:11:27.109Z,11.40
2018-09-29T09:13:55.922Z,11.60
2018-09-29T09:16:24.571Z,11.70
2018-09-29T09:18:53.208Z,11.80
2018-09-29T09:21:21.821Z,12.00
2018-09-29T09:23:50.795Z,12.00
2018-09-29T09:26:19.426Z,12.10
2018-09-29T09:28:48.177Z,12.20
2018-09-29T09:31:16.786Z,12.30
2018-09-29T09:33:45.540Z,12.40
2018-09-29T09:36:14.202Z,12.40
2018-09-29T09:38:42.776Z,12.60
2018-09-29T09:41:11.403Z,12.50
2018-09-29T09:43:40.082Z,12.50
2018-09-29T09:46:08.707Z,12.70
2018-09-29T09:48:37.302Z,12.70
2018-09-29T09:51:06.186Z,12.70
2018-09-29T09:53:35.263Z,12.80
2018-09-29T09:56:04.073Z,12.80
2018-09-29T09:58:32.683Z,12.80
2018-09-29T10:01:06.626Z,12.60
2018-09-29T10:03:35.968Z,12.60
2018-09-29T10:06:04.704Z,12.70
2018-09-29T10:08:33.537Z,12.90
2018-09-29T10:11:02.206Z,13.00
2018-09-29T10:13:30.822Z,13.10
2018-09-29T10:15:59.449Z,13.20
2018-09-29T10:18:28.214Z,13.20
2018-09-29T10:20:57.206Z,13.00
2018-09-29T10:23:25.876Z,13.10
2018-09-29T10:25:54.761Z,13.20
2018-09-29T10:28:23.546Z,13.40
2018-09-29T10:30:52.165Z,13.40
2018-09-29T10:33:20.818Z,13.50
2018-09-29T10:35:49.429Z,13.60
2018-09-29T10:38:18.132Z,13.70
2018-09-29T10:40:46.781Z,13.80
2018-09-29T10:43:15.622Z,13.90
2018-09-29T10:45:44.287Z,13.90
2018-09-29T10:48:12.939Z,13.70
2018-09-29T10:50:41.677Z,13.50
2018-09-29T10:53:10.321Z,13.70
2018-09-29T10:55:38.954Z,13.90
2018-09-29T10:58:07.915Z,14.00
2018-09-29T11:00:38.087Z,13.90
2018-09-29T11:03:06.806Z,13.90
2018-09-29T11:05:35.611Z,14.00
2018-09-29T11:08:04.221Z,14.20
2018-09-29T11:10:32.847Z,14.20
2018-09-29T11:13:01.581Z,14.20
2018-09-29T11:15:30.198Z,14.10
2018-09-29T11:17:59.092Z,14.10
2018-09-29T11:20:27.709Z,14.10
2018-09-29T11:22:56.292Z,14.20
2018-09-29T11:25:24.867Z,14.20
2018-09-29T11:27:53.614Z,14.20
2018-09-29T11:30:22.286Z,14.10
2018-09-29T11:32:50.959Z,14.20
2018-09-29T11:35:19.636Z,14.30
2018-09-29T11:37:48.376Z,14.50
2018-09-29T11:40:17.056Z,14.50
2018-09-29T11:42:45.684Z,14.60
2018-09-29T11:45:14.508Z,14.70
2018-09-29T11:47:43.191Z,14.80
2018-09-29T11:50:11.833Z,14.80
2018-09-29T11:52:40.489Z,14.70
2018-09-29T11:55:09.183Z,14.50
2018-09-29T11:57:38.259Z,14.50
2018-09-29T12:00:06.969Z,14.50
2018-09-29T12:02:35.581Z,14.60
2018-09-29T12:05:04.300Z,14.70
2018-09-29T12:07:33.555Z,14.80
2018-09-29T12:10:02.522Z,14.90
2018-09-29T12:12:31.292Z,14.80
2018-09-29T12:14:59.930Z,14.90
2018-09-29T12:17:28.482Z,14.90
2018-09-29T12:19:57.320Z,15.00
2018-09-29T12:22:26.092Z,15.00
2018-09-29T12:24:54.670Z,14.80
2018-09-29T12:27:24.920Z,14.80
2018-09-29T12:29:52.097Z,14.90
2018-09-29T12:32:20.750Z,14.90
2018-09-29T12:34:49.549Z,14.90
2018-09-29T12:37:18.469Z,14.80
2018-09-29T12:39:47.135Z,14.80
2018-09-29T12:42:15.765Z,14.80
2018-09-29T12:44:44.553Z,14.90
2018-09-29T12:47:13.384Z,14.90
2018-09-29T12:49:42.333Z,15.00
2018-09-29T12:52:11.106Z,15.00
2018-09-29T12:54:39.746Z,14.90
2018-09-29T12:57:08.494Z,14.90
2018-09-29T12:59:37.301Z,14.90
2018-09-29T13:02:06.390Z,14.80
2018-09-29T13:04:35.044Z,15.00
2018-09-29T13:07:10.463Z,14.90
2018-09-29T13:09:39.165Z,15.00
2018-09-29T13:12:08.422Z,15.00
2018-09-29T13:14:37.135Z,14.80
2018-09-29T13:17:06.715Z,15.00
2018-09-29T13:19:35.393Z,15.00
2018-09-29T13:22:04.262Z,15.10
2018-09-29T13:24:32.904Z,15.20
2018-09-29T13:27:01.552Z,15.20
2018-09-29T13:29:30.252Z,15.20
2018-09-29T13:31:58.988Z,15.30
2018-09-29T13:34:27.577Z,15.40
2018-09-29T13:36:56.293Z,15.40
2018-09-29T13:39:25.013Z,15.30
2018-09-29T13:41:53.720Z,15.30
2018-09-29T13:44:22.341Z,15.40
2018-09-29T13:46:50.935Z,15.50
2018-09-29T13:49:19.901Z,15.50
2018-09-29T13:51:48.542Z,15.40
2018-09-29T13:54:17.352Z,15.50
2018-09-29T13:56:45.962Z,15.50
2018-09-29T13:59:14.719Z,15.40
2018-09-29T14:01:43.620Z,15.30
2018-09-29T14:04:12.263Z,15.20
2018-09-29T14:06:41.077Z,15.20
2018-09-29T14:09:10.718Z,15.30
2018-09-29T14:11:45.856Z,15.20
2018-09-29T14:14:14.779Z,15.20
2018-09-29T14:16:43.575Z,15.30
2018-09-29T14:19:12.242Z,15.40
2018-09-29T14:21:40.969Z,15.50
2018-09-29T14:24:09.721Z,15.50
2018-09-29T14:26:38.719Z,15.30
2018-09-29T14:29:07.476Z,15.40
2018-09-29T14:31:36.221Z,15.30
2018-09-29T14:34:05.026Z,15.40
2018-09-29T14:36:33.698Z,15.20
2018-09-29T14:39:02.346Z,15.30
2018-09-29T14:41:30.906Z,15.30
2018-09-29T14:43:59.578Z,15.40
2018-09-29T14:46:28.225Z,15.40
2018-09-29T14:48:57.002Z,15.30
2018-09-29T14:51:25.701Z,15.40
2018-09-29T14:53:54.401Z,15.30
2018-09-29T14:56:23.876Z,15.20
2018-09-29T14:58:52.517Z,15.20
2018-09-29T15:01:21.290Z,15.30
2018-09-29T15:03:50.174Z,15.30
2018-09-29T15:06:18.960Z,15.30
2018-09-29T15:08:47.636Z,15.40
2018-09-29T15:11:16.676Z,15.30
2018-09-29T15:13:45.974Z,15.20
2018-09-29T15:16:14.825Z,15.30
2018-09-29T15:18:43.543Z,15.40
2018-09-29T15:21:12.188Z,15.30
2018-09-29T15:23:40.779Z,15.30
2018-09-29T15:26:09.520Z,15.40
2018-09-29T15:28:38.431Z,15.30
2018-09-29T15:31:07.620Z,15.20
2018-09-29T15:33:36.435Z,15.20
2018-09-29T15:38:43.783Z,15.30
2018-09-29T15:41:12.555Z,15.20
2018-09-29T15:43:41.342Z,15.20
2018-09-29T15:46:09.952Z,15.20
2018-09-29T15:48:38.564Z,15.10
2018-09-29T15:51:07.202Z,15.20
2018-09-29T15:53:36.108Z,15.20
2018-09-29T15:56:04.821Z,15.20
2018-09-29T15:58:33.425Z,15.20
2018-09-29T16:01:02.399Z,15.20
2018-09-29T16:03:31.054Z,15.20
2018-09-29T16:06:00.217Z,15.10
2018-09-29T16:08:28.985Z,15.00
2018-09-29T16:10:57.638Z,15.00
2018-09-29T16:13:26.392Z,15.00
2018-09-29T16:15:55.009Z,14.90
2018-09-29T16:18:23.698Z,14.90
2018-09-29T16:20:52.381Z,14.80
2018-09-29T16:23:21.078Z,14.80
2018-09-29T16:25:49.690Z,14.80
2018-09-29T16:28:18.302Z,14.70
2018-09-29T16:30:47.202Z,14.70
2018-09-29T16:33:15.776Z,14.60
2018-09-29T16:35:44.422Z,14.60
2018-09-29T16:38:13.071Z,14.50
2018-09-29T16:40:41.735Z,14.40
2018-09-29T16:43:10.528Z,14.40
2018-09-29T16:45:39.191Z,14.20
2018-09-29T16:48:08.037Z,14.10
2018-09-29T16:50:36.785Z,14.10
2018-09-29T16:53:05.397Z,14.00
2018-09-29T16:55:34.107Z,14.00
2018-09-29T16:58:02.865Z,14.00
2018-09-29T17:00:31.517Z,13.90
2018-09-29T17:03:00.149Z,13.90
2018-09-29T17:05:29.412Z,13.70
2018-09-29T17:07:58.125Z,13.50
2018-09-29T17:10:26.766Z,13.40
2018-09-29T17:12:55.413Z,13.40
2018-09-29T17:15:24.017Z,13.40
2018-09-29T17:17:52.760Z,13.20
2018-09-29T17:20:22.637Z,13.10
2018-09-29T17:22:51.358Z,13.10
2018-09-29T17:25:20.022Z,13.10
2018-09-29T17:27:49.499Z,13.10
2018-09-29T17:30:18.183Z,13.10
2018-09-29T17:32:46.979Z,13.00
2018-09-29T17:35:15.716Z,13.00
2018-09-29T17:37:44.450Z,12.90
2018-09-29T17:40:13.151Z,12.80
2018-09-29T17:42:41.741Z,12.70
2018-09-29T17:45:10.507Z,12.70
2018-09-29T17:47:39.237Z,12.70
2018-09-29T17:50:08.992Z,12.60
2018-09-29T17:52:37.692Z,12.50
2018-09-29T17:55:06.611Z,12.50
2018-09-29T17:57:35.261Z,12.40
2018-09-29T18:00:03.965Z,12.40
2018-09-29T18:02:32.623Z,12.30
2018-09-29T18:05:01.253Z,12.20
2018-09-29T18:07:29.986Z,12.20
2018-09-29T18:09:58.752Z,12.10
2018-09-29T18:12:28.137Z,12.10
2018-09-29T18:14:56.862Z,12.00
2018-09-29T18:17:25.955Z,12.00
2018-09-29T18:19:54.606Z,11.90
2018-09-29T18:22:23.325Z,11.80
2018-09-29T18:24:51.971Z,11.70
2018-09-29T18:27:20.649Z,11.60
2018-09-29T18:29:49.419Z,11.60
2018-09-29T18:32:18.015Z,11.50
2018-09-29T18:34:46.653Z,11.50
2018-09-29T18:37:15.438Z,11.50
2018-09-29T18:39:44.111Z,11.50
2018-09-29T18:42:12.902Z,11.50
2018-09-29T18:44:41.588Z,11.40
2018-09-29T18:47:10.217Z,11.30
2018-09-29T18:49:39.097Z,11.20
2018-09-29T18:52:08.182Z,11.20
2018-09-29T18:54:37.001Z,11.20
2018-09-29T18:57:05.898Z,11.20
2018-09-29T18:59:35.121Z,11.10
2018-09-29T19:02:04.922Z,11.20
2018-09-29T19:04:33.537Z,11.10
2018-09-29T19:07:02.421Z,11.00
2018-09-29T19:09:31.258Z,11.00
2018-09-29T19:12:00.044Z,11.10
2018-09-29T19:14:28.707Z,11.00
2018-09-29T19:16:57.648Z,11.00
2018-09-29T19:19:26.390Z,11.00
2018-09-29T19:21:55.347Z,10.80
2018-09-29T19:24:24.227Z,10.90
2018-09-29T19:26:53.012Z,10.80
2018-09-29T19:29:21.775Z,10.70
2018-09-29T19:31:50.428Z,10.70
2018-09-29T19:34:19.405Z,10.60
2018-09-29T19:36:48.048Z,10.60
2018-09-29T19:39:16.746Z,10.70
2018-09-29T19:41:45.378Z,10.60
2018-09-29T19:44:14.018Z,10.60
2018-09-29T19:46:42.651Z,10.50
2018-09-29T19:49:11.309Z,10.40
2018-09-29T19:51:39.950Z,10.40
2018-09-29T19:54:08.754Z,10.40
2018-09-29T19:56:37.541Z,10.30
2018-09-29T19:59:06.256Z,10.30
2018-09-29T20:01:34.999Z,10.30
2018-09-29T20:04:03.948Z,10.20
2018-09-29T20:06:32.573Z,10.20
2018-09-29T20:09:01.270Z,10.20
2018-09-29T20:11:29.862Z,10.10
2018-09-29T20:13:58.553Z,10.00
2018-09-29T20:16:27.197Z,10.10
2018-09-29T20:18:55.857Z,10.00
2018-09-29T20:21:24.447Z,10.00
2018-09-29T20:23:53.018Z,10.00
2018-09-29T20:26:21.660Z,10.10
2018-09-29T20:28:50.236Z,10.00
2018-09-29T20:31:19.082Z,10.00
2018-09-29T20:33:47.730Z,10.00
2018-09-29T20:36:22.701Z,10.00
2018-09-29T20:38:51.337Z,10.00
2018-09-29T20:41:19.917Z,9.90
2018-09-29T20:43:48.654Z,10.00
2018-09-29T20:46:17.241Z,10.00
2018-09-29T20:48:45.893Z,9.80
2018-09-29T20:51:14.622Z,9.80
2018-09-29T20:53:43.258Z,9.70
2018-09-29T20:56:11.852Z,9.70
2018-09-29T20:58:40.437Z,9.70
2018-09-29T21:01:09.099Z,9.70
2018-09-29T21:03:37.732Z,9.70
2018-09-29T21:06:06.376Z,9.70
2018-09-29T21:08:35.046Z,9.60
2018-09-29T21:11:03.897Z,9.60
2018-09-29T21:13:32.545Z,9.60
2018-09-29T21:16:01.241Z,9.60
2018-09-29T21:18:29.892Z,9.50
2018-09-29T21:20:59.286Z,9.50
2018-09-29T21:23:27.963Z,9.40
2018-09-29T21:25:56.585Z,9.40
2018-09-29T21:28:25.205Z,9.40
2018-09-29T21:30:53.786Z,9.40
2018-09-29T21:33:22.410Z,9.40
2018-09-29T21:35:51.079Z,9.40
2018-09-29T21:38:19.810Z,9.40
2018-09-29T21:40:48.490Z,9.30
2018-09-29T21:43:17.401Z,9.20
2018-09-29T21:45:46.043Z,9.20
2018-09-29T21:48:14.666Z,9.20
2018-09-29T21:50:43.277Z,9.20
2018-09-29T21:53:11.941Z,9.20
2018-09-29T21:55:40.610Z,9.20
2018-09-29T21:58:09.469Z,9.10
2018-09-29T22:00:44.330Z,9.10
2018-09-29T22:03:14.858Z,9.00
2018-09-29T22:05:43.994Z,9.00
2018-09-29T22:08:13.121Z,9.10
2018-09-29T22:10:41.719Z,9.10
2018-09-29T22:13:10.388Z,9.10
2018-09-29T22:15:39.177Z,9.00
2018-09-29T22:18:07.856Z,8.90
2018-09-29T22:20:36.408Z,8.90
2018-09-29T22:23:04.975Z,8.90
2018-09-29T22:25:33.520Z,8.80
2018-09-29T22:28:02.281Z,8.90
2018-09-29T22:30:30.863Z,8.90
2018-09-29T22:32:59.580Z,8.80
2018-09-29T22:35:28.220Z,8.70
2018-09-29T22:37:56.830Z,8.70
2018-09-29T22:40:25.403Z,8.70
2018-09-29T22:42:54.126Z,8.70
2018-09-29T22:45:22.909Z,8.60
2018-09-29T22:47:52.616Z,8.60
2018-09-29T22:50:21.178Z,8.60
2018-09-29T22:52:49.883Z,8.60
2018-09-29T22:55:18.510Z,8.50
2018-09-29T22:57:47.205Z,8.50
2018-09-29T23:00:15.861Z,8.50
2018-09-29T23:02:44.520Z,8.40
2018-09-29T23:05:13.087Z,8.40
2018-09-29T23:07:41.661Z,8.50
2018-09-29T23:10:10.225Z,8.50
2018-09-29T23:12:38.787Z,8.50
2018-09-29T23:15:07.536Z,8.50
2018-09-29T23:17:36.185Z,8.40
2018-09-29T23:20:05.255Z,8.40
2018-09-29T23:22:33.775Z,8.30
2018-09-29T23:25:08.893Z,8.30
2018-09-29T23:27:38.139Z,8.30
2018-09-29T23:30:07.120Z,8.20
2018-09-29T23:32:35.696Z,8.20
2018-09-29T23:35:04.887Z,8.20
2018-09-29T23:37:33.478Z,8.10
2018-09-29T23:40:02.438Z,8.10
2018-09-29T23:42:31.117Z,8.00
2018-09-29T23:44:59.725Z,7.90
2018-09-29T23:47:28.533Z,7.90
2018-09-29T23:49:57.091Z,7.90
2018-09-29T23:52:25.706Z,7.90
2018-09-29T23:54:54.284Z,7.80
2018-09-29T23:57:22.893Z,7.70
2018-09-29T23:59:51.525Z,7.70
